Elk City, Kansas
Current Conditions -  °F | °C
As of 12:15 PM on Friday 28 Nov 2014 (Local Time) from KIDP Reporting Station
Clear Clear  
Wind Chill: 14°   Ceiling: Unl
Heat Index: 14°   Visibility: 10mi
Dew Point:   Wind: 16mph
Humidity: 38%   Direction: 200°SSW
Pressure: 29.95"   Gusts: 25mph
Location:  37.29°N, 95.91°W
Report Text: KIDP 281815Z AUTO 20014G22KT 10SM CLR 14/00 A2995 RMK AO2
Loading
Personal Weather Stations






























Interactive Weather Map New forecast layout! Learn more

10-Day Weather Forecast

Advertisements
Track Severe Weather on mobile